sensor_id;sensor_type;location;lat;lon;timestamp;P1;durP1;ratioP1;P2;durP2;ratioP2
4210;SDS011;2119;48.828;12.396;2022-11-15T00:02:55;19.52;;;14.65;;
4210;SDS011;2119;48.828;12.396;2022-11-15T00:07:56;19.20;;;14.27;;
4210;SDS011;2119;48.828;12.396;2022-11-15T00:12:56;19.73;;;12.93;;
4210;SDS011;2119;48.828;12.396;2022-11-15T00:17:56;18.67;;;13.93;;
4210;SDS011;2119;48.828;12.396;2022-11-15T00:22:57;14.68;;;12.32;;
4210;SDS011;2119;48.828;12.396;2022-11-15T00:27:57;15.38;;;12.13;;
4210;SDS011;2119;48.828;12.396;2022-11-15T00:33:01;17.70;;;12.17;;
4210;SDS011;2119;48.828;12.396;2022-11-15T00:38:02;14.40;;;12.60;;
4210;SDS011;2119;48.828;12.396;2022-11-15T00:43:02;14.70;;;12.00;;
4210;SDS011;2119;48.828;12.396;2022-11-15T00:48:02;17.85;;;13.65;;
4210;SDS011;2119;48.828;12.396;2022-11-15T00:53:02;16.80;;;12.83;;
4210;SDS011;2119;48.828;12.396;2022-11-15T00:58:03;14.73;;;12.50;;
4210;SDS011;2119;48.828;12.396;2022-11-15T01:03:03;18.92;;;13.35;;
4210;SDS011;2119;48.828;12.396;2022-11-15T01:08:03;20.60;;;12.68;;
4210;SDS011;2119;48.828;12.396;2022-11-15T01:13:03;17.50;;;11.90;;
4210;SDS011;2119;48.828;12.396;2022-11-15T01:18:04;15.00;;;11.20;;
4210;SDS011;2119;48.828;12.396;2022-11-15T01:23:04;14.60;;;12.43;;
4210;SDS011;2119;48.828;12.396;2022-11-15T01:28:04;17.53;;;12.00;;
4210;SDS011;2119;48.828;12.396;2022-11-15T01:33:04;16.00;;;12.40;;
4210;SDS011;2119;48.828;12.396;2022-11-15T01:38:04;15.60;;;13.00;;
4210;SDS011;2119;48.828;12.396;2022-11-15T01:48:25;17.67;;;13.17;;
4210;SDS011;2119;48.828;12.396;2022-11-15T01:53:29;16.20;;;11.83;;
4210;SDS011;2119;48.828;12.396;2022-11-15T01:58:31;17.30;;;12.10;;
4210;SDS011;2119;48.828;12.396;2022-11-15T02:03:38;14.47;;;11.73;;
4210;SDS011;2119;48.828;12.396;2022-11-15T02:08:39;15.90;;;11.53;;
4210;SDS011;2119;48.828;12.396;2022-11-15T02:13:40;13.17;;;10.80;;
4210;SDS011;2119;48.828;12.396;2022-11-15T02:18:49;15.37;;;11.60;;
4210;SDS011;2119;48.828;12.396;2022-11-15T02:29:11;15.83;;;12.43;;
4210;SDS011;2119;48.828;12.396;2022-11-15T02:44:33;17.60;;;10.60;;
4210;SDS011;2119;48.828;12.396;2022-11-15T02:49:35;11.93;;;9.43;;
4210;SDS011;2119;48.828;12.396;2022-11-15T02:54:37;11.93;;;9.47;;
4210;SDS011;2119;48.828;12.396;2022-11-15T02:59:42;11.90;;;9.27;;
4210;SDS011;2119;48.828;12.396;2022-11-15T03:04:44;14.57;;;10.73;;
4210;SDS011;2119;48.828;12.396;2022-11-15T03:09:54;17.73;;;10.70;;
4210;SDS011;2119;48.828;12.396;2022-11-15T03:19:56;13.95;;;11.30;;
4210;SDS011;2119;48.828;12.396;2022-11-15T03:25:00;15.87;;;11.70;;
4210;SDS011;2119;48.828;12.396;2022-11-15T03:30:04;17.17;;;13.37;;
4210;SDS011;2119;48.828;12.396;2022-11-15T03:35:17;16.10;;;12.00;;
4210;SDS011;2119;48.828;12.396;2022-11-15T03:40:19;14.90;;;11.73;;
4210;SDS011;2119;48.828;12.396;2022-11-15T03:45:22;18.90;;;12.83;;
4210;SDS011;2119;48.828;12.396;2022-11-15T03:50:26;15.07;;;11.97;;
4210;SDS011;2119;48.828;12.396;2022-11-15T03:55:26;19.50;;;12.33;;
4210;SDS011;2119;48.828;12.396;2022-11-15T04:00:27;13.97;;;10.40;;
4210;SDS011;2119;48.828;12.396;2022-11-15T04:05:27;14.33;;;11.67;;
4210;SDS011;2119;48.828;12.396;2022-11-15T04:10:28;18.23;;;12.40;;
4210;SDS011;2119;48.828;12.396;2022-11-15T04:15:31;15.00;;;11.97;;
4210;SDS011;2119;48.828;12.396;2022-11-15T04:20:31;16.77;;;13.40;;
4210;SDS011;2119;48.828;12.396;2022-11-15T04:25:51;20.60;;;15.30;;
4210;SDS011;2119;48.828;12.396;2022-11-15T04:30:51;15.40;;;12.20;;
4210;SDS011;2119;48.828;12.396;2022-11-15T04:35:52;11.70;;;9.50;;
4210;SDS011;2119;48.828;12.396;2022-11-15T04:41:11;10.40;;;9.30;;
4210;SDS011;2119;48.828;12.396;2022-11-15T04:46:12;13.52;;;10.02;;
4210;SDS011;2119;48.828;12.396;2022-11-15T04:51:12;10.27;;;8.47;;
4210;SDS011;2119;48.828;12.396;2022-11-15T04:56:13;10.10;;;9.05;;
4210;SDS011;2119;48.828;12.396;2022-11-15T05:01:13;13.10;;;9.00;;
4210;SDS011;2119;48.828;12.396;2022-11-15T05:06:14;13.13;;;9.33;;
4210;SDS011;2119;48.828;12.396;2022-11-15T05:11:15;21.85;;;10.48;;
4210;SDS011;2119;48.828;12.396;2022-11-15T05:16:15;16.33;;;11.25;;
4210;SDS011;2119;48.828;12.396;2022-11-15T05:21:15;20.07;;;12.63;;
4210;SDS011;2119;48.828;12.396;2022-11-15T05:26:17;19.60;;;12.27;;
4210;SDS011;2119;48.828;12.396;2022-11-15T05:31:17;18.50;;;11.17;;
4210;SDS011;2119;48.828;12.396;2022-11-15T05:41:19;18.67;;;12.23;;
4210;SDS011;2119;48.828;12.396;2022-11-15T05:46:20;17.23;;;11.07;;
4210;SDS011;2119;48.828;12.396;2022-11-15T05:51:20;18.20;;;11.85;;
4210;SDS011;2119;48.828;12.396;2022-11-15T05:56:22;13.90;;;11.03;;
4210;SDS011;2119;48.828;12.396;2022-11-15T06:01:22;19.27;;;12.20;;
4210;SDS011;2119;48.828;12.396;2022-11-15T06:06:23;20.97;;;14.77;;
4210;SDS011;2119;48.828;12.396;2022-11-15T06:11:23;26.20;;;16.15;;
4210;SDS011;2119;48.828;12.396;2022-11-15T06:16:23;26.15;;;16.50;;
4210;SDS011;2119;48.828;12.396;2022-11-15T06:21:23;34.78;;;17.15;;
4210;SDS011;2119;48.828;12.396;2022-11-15T06:26:24;51.10;;;28.10;;
4210;SDS011;2119;48.828;12.396;2022-11-15T06:31:24;36.30;;;23.50;;
4210;SDS011;2119;48.828;12.396;2022-11-15T06:36:24;29.37;;;17.90;;
4210;SDS011;2119;48.828;12.396;2022-11-15T06:41:25;27.88;;;16.10;;
4210;SDS011;2119;48.828;12.396;2022-11-15T06:46:25;21.00;;;14.55;;
4210;SDS011;2119;48.828;12.396;2022-11-15T06:51:25;19.63;;;13.27;;
4210;SDS011;2119;48.828;12.396;2022-11-15T06:56:26;16.70;;;11.90;;
4210;SDS011;2119;48.828;12.396;2022-11-15T07:01:27;16.77;;;11.10;;
4210;SDS011;2119;48.828;12.396;2022-11-15T07:06:27;16.80;;;11.63;;
4210;SDS011;2119;48.828;12.396;2022-11-15T07:11:27;23.73;;;12.57;;
4210;SDS011;2119;48.828;12.396;2022-11-15T07:16:27;20.60;;;13.00;;
4210;SDS011;2119;48.828;12.396;2022-11-15T07:21:28;18.33;;;11.32;;
4210;SDS011;2119;48.828;12.396;2022-11-15T07:26:28;23.55;;;13.35;;
4210;SDS011;2119;48.828;12.396;2022-11-15T07:31:28;31.52;;;15.45;;
4210;SDS011;2119;48.828;12.396;2022-11-15T07:36:29;19.75;;;12.82;;
4210;SDS011;2119;48.828;12.396;2022-11-15T07:41:31;20.13;;;14.10;;
4210;SDS011;2119;48.828;12.396;2022-11-15T07:46:32;31.77;;;18.00;;
4210;SDS011;2119;48.828;12.396;2022-11-15T07:51:33;42.80;;;25.63;;
4210;SDS011;2119;48.828;12.396;2022-11-15T07:56:33;53.27;;;31.33;;
4210;SDS011;2119;48.828;12.396;2022-11-15T08:01:34;39.88;;;25.65;;
4210;SDS011;2119;48.828;12.396;2022-11-15T08:06:36;41.20;;;24.98;;
4210;SDS011;2119;48.828;12.396;2022-11-15T08:11:37;27.17;;;19.43;;
4210;SDS011;2119;48.828;12.396;2022-11-15T08:21:42;36.27;;;20.10;;
4210;SDS011;2119;48.828;12.396;2022-11-15T08:26:44;31.50;;;19.67;;
4210;SDS011;2119;48.828;12.396;2022-11-15T08:31:45;30.67;;;20.43;;
4210;SDS011;2119;48.828;12.396;2022-11-15T08:36:45;31.50;;;18.20;;
4210;SDS011;2119;48.828;12.396;2022-11-15T08:41:46;23.15;;;17.00;;
4210;SDS011;2119;48.828;12.396;2022-11-15T08:46:47;28.58;;;17.00;;
4210;SDS011;2119;48.828;12.396;2022-11-15T08:51:47;25.40;;;17.23;;
4210;SDS011;2119;48.828;12.396;2022-11-15T08:56:47;22.23;;;15.82;;
4210;SDS011;2119;48.828;12.396;2022-11-15T09:01:48;23.37;;;15.40;;
4210;SDS011;2119;48.828;12.396;2022-11-15T09:06:48;27.07;;;16.87;;
4210;SDS011;2119;48.828;12.396;2022-11-15T09:11:51;22.13;;;15.17;;
4210;SDS011;2119;48.828;12.396;2022-11-15T09:16:51;25.70;;;16.23;;
4210;SDS011;2119;48.828;12.396;2022-11-15T09:21:52;24.73;;;16.57;;
4210;SDS011;2119;48.828;12.396;2022-11-15T09:26:53;29.70;;;17.20;;
4210;SDS011;2119;48.828;12.396;2022-11-15T09:31:54;30.40;;;18.30;;
4210;SDS011;2119;48.828;12.396;2022-11-15T09:36:55;34.47;;;20.67;;
4210;SDS011;2119;48.828;12.396;2022-11-15T09:47:26;31.77;;;21.20;;
4210;SDS011;2119;48.828;12.396;2022-11-15T09:52:28;35.57;;;23.13;;
4210;SDS011;2119;48.828;12.396;2022-11-15T10:07:56;38.83;;;24.70;;
4210;SDS011;2119;48.828;12.396;2022-11-15T10:13:02;35.37;;;23.53;;
4210;SDS011;2119;48.828;12.396;2022-11-15T10:18:16;35.90;;;23.80;;
4210;SDS011;2119;48.828;12.396;2022-11-15T10:23:20;34.60;;;21.93;;
4210;SDS011;2119;48.828;12.396;2022-11-15T10:28:25;37.50;;;22.23;;
4210;SDS011;2119;48.828;12.396;2022-11-15T10:33:35;36.87;;;22.53;;
4210;SDS011;2119;48.828;12.396;2022-11-15T10:49:20;29.17;;;19.27;;
4210;SDS011;2119;48.828;12.396;2022-11-15T10:59:40;31.97;;;21.47;;
4210;SDS011;2119;48.828;12.396;2022-11-15T11:04:50;29.50;;;20.70;;
4210;SDS011;2119;48.828;12.396;2022-11-15T11:10:05;27.87;;;20.53;;
4210;SDS011;2119;48.828;12.396;2022-11-15T11:15:16;34.77;;;22.20;;
4210;SDS011;2119;48.828;12.396;2022-11-15T11:20:36;28.17;;;20.50;;
4210;SDS011;2119;48.828;12.396;2022-11-15T11:46:44;28.02;;;18.55;;
4210;SDS011;2119;48.828;12.396;2022-11-15T11:51:50;26.73;;;18.60;;
4210;SDS011;2119;48.828;12.396;2022-11-15T11:56:51;25.03;;;15.67;;
4210;SDS011;2119;48.828;12.396;2022-11-15T12:01:52;18.87;;;14.20;;
4210;SDS011;2119;48.828;12.396;2022-11-15T12:06:58;17.00;;;12.73;;
4210;SDS011;2119;48.828;12.396;2022-11-15T12:12:11;20.50;;;14.70;;
4210;SDS011;2119;48.828;12.396;2022-11-15T12:17:15;15.80;;;13.03;;
4210;SDS011;2119;48.828;12.396;2022-11-15T12:22:20;16.40;;;13.83;;
4210;SDS011;2119;48.828;12.396;2022-11-15T12:32:35;17.37;;;12.70;;
4210;SDS011;2119;48.828;12.396;2022-11-15T12:42:41;18.23;;;12.97;;
4210;SDS011;2119;48.828;12.396;2022-11-15T12:47:42;21.60;;;13.00;;
4210;SDS011;2119;48.828;12.396;2022-11-15T13:03:26;20.30;;;13.97;;
4210;SDS011;2119;48.828;12.396;2022-11-15T13:08:49;19.33;;;14.83;;
4210;SDS011;2119;48.828;12.396;2022-11-15T13:13:50;32.20;;;20.27;;
4210;SDS011;2119;48.828;12.396;2022-11-15T13:18:54;31.27;;;21.20;;
4210;SDS011;2119;48.828;12.396;2022-11-15T13:23:58;22.37;;;16.67;;
4210;SDS011;2119;48.828;12.396;2022-11-15T13:28:59;20.70;;;16.40;;
4210;SDS011;2119;48.828;12.396;2022-11-15T13:34:48;20.83;;;15.47;;
4210;SDS011;2119;48.828;12.396;2022-11-15T13:39:27;19.97;;;15.03;;
4210;SDS011;2119;48.828;12.396;2022-11-15T13:44:29;21.03;;;15.60;;
4210;SDS011;2119;48.828;12.396;2022-11-15T13:49:30;19.80;;;15.23;;
4210;SDS011;2119;48.828;12.396;2022-11-15T14:00:06;20.70;;;15.10;;
4210;SDS011;2119;48.828;12.396;2022-11-15T14:05:14;25.13;;;16.23;;
4210;SDS011;2119;48.828;12.396;2022-11-15T14:15:46;22.70;;;17.73;;
4210;SDS011;2119;48.828;12.396;2022-11-15T14:20:47;22.50;;;16.60;;
4210;SDS011;2119;48.828;12.396;2022-11-15T14:25:55;23.90;;;17.50;;
4210;SDS011;2119;48.828;12.396;2022-11-15T14:30:56;25.80;;;18.13;;
4210;SDS011;2119;48.828;12.396;2022-11-15T14:35:58;19.87;;;16.10;;
4210;SDS011;2119;48.828;12.396;2022-11-15T14:40:58;23.80;;;17.37;;
4210;SDS011;2119;48.828;12.396;2022-11-15T14:45:59;23.27;;;17.50;;
4210;SDS011;2119;48.828;12.396;2022-11-15T14:51:00;30.92;;;21.50;;
4210;SDS011;2119;48.828;12.396;2022-11-15T14:56:00;29.07;;;21.90;;
4210;SDS011;2119;48.828;12.396;2022-11-15T15:01:02;28.58;;;20.50;;
4210;SDS011;2119;48.828;12.396;2022-11-15T15:06:02;26.57;;;19.80;;
4210;SDS011;2119;48.828;12.396;2022-11-15T15:11:04;28.23;;;20.40;;
4210;SDS011;2119;48.828;12.396;2022-11-15T15:16:07;23.53;;;18.00;;
4210;SDS011;2119;48.828;12.396;2022-11-15T15:21:26;32.60;;;20.80;;
4210;SDS011;2119;48.828;12.396;2022-11-15T15:26:31;33.20;;;21.80;;
4210;SDS011;2119;48.828;12.396;2022-11-15T15:31:37;36.63;;;22.47;;
4210;SDS011;2119;48.828;12.396;2022-11-15T15:36:37;29.23;;;19.83;;
4210;SDS011;2119;48.828;12.396;2022-11-15T15:41:37;28.23;;;18.00;;
4210;SDS011;2119;48.828;12.396;2022-11-15T15:46:39;25.00;;;17.20;;
4210;SDS011;2119;48.828;12.396;2022-11-15T15:51:39;24.10;;;17.73;;
4210;SDS011;2119;48.828;12.396;2022-11-15T15:56:39;29.85;;;19.38;;
4210;SDS011;2119;48.828;12.396;2022-11-15T16:01:40;27.58;;;18.83;;
4210;SDS011;2119;48.828;12.396;2022-11-15T16:06:40;31.20;;;21.30;;
4210;SDS011;2119;48.828;12.396;2022-11-15T16:11:44;23.13;;;17.20;;
4210;SDS011;2119;48.828;12.396;2022-11-15T16:16:45;26.80;;;16.50;;
4210;SDS011;2119;48.828;12.396;2022-11-15T16:21:45;39.30;;;25.90;;
4210;SDS011;2119;48.828;12.396;2022-11-15T16:26:45;56.30;;;37.30;;
4210;SDS011;2119;48.828;12.396;2022-11-15T16:31:47;49.83;;;31.43;;
4210;SDS011;2119;48.828;12.396;2022-11-15T16:36:47;41.13;;;26.60;;
4210;SDS011;2119;48.828;12.396;2022-11-15T16:41:48;34.33;;;23.57;;
4210;SDS011;2119;48.828;12.396;2022-11-15T16:46:48;40.17;;;25.43;;
4210;SDS011;2119;48.828;12.396;2022-11-15T16:51:50;35.10;;;24.80;;
4210;SDS011;2119;48.828;12.396;2022-11-15T16:56:51;38.72;;;25.65;;
4210;SDS011;2119;48.828;12.396;2022-11-15T17:01:51;32.03;;;21.97;;
4210;SDS011;2119;48.828;12.396;2022-11-15T17:06:51;32.40;;;20.60;;
4210;SDS011;2119;48.828;12.396;2022-11-15T17:11:52;26.93;;;19.00;;
4210;SDS011;2119;48.828;12.396;2022-11-15T17:16:52;37.77;;;25.67;;
4210;SDS011;2119;48.828;12.396;2022-11-15T17:21:52;59.50;;;41.07;;
4210;SDS011;2119;48.828;12.396;2022-11-15T17:26:56;60.13;;;41.90;;
4210;SDS011;2119;48.828;12.396;2022-11-15T17:31:56;45.23;;;28.50;;
4210;SDS011;2119;48.828;12.396;2022-11-15T17:36:56;45.40;;;29.50;;
4210;SDS011;2119;48.828;12.396;2022-11-15T17:41:57;52.38;;;34.45;;
4210;SDS011;2119;48.828;12.396;2022-11-15T17:46:57;41.60;;;29.63;;
4210;SDS011;2119;48.828;12.396;2022-11-15T17:51:57;46.50;;;31.70;;
4210;SDS011;2119;48.828;12.396;2022-11-15T17:56:58;42.17;;;25.75;;
4210;SDS011;2119;48.828;12.396;2022-11-15T18:01:58;36.80;;;25.07;;
4210;SDS011;2119;48.828;12.396;2022-11-15T18:06:58;49.95;;;32.17;;
4210;SDS011;2119;48.828;12.396;2022-11-15T18:11:58;41.50;;;30.27;;
4210;SDS011;2119;48.828;12.396;2022-11-15T18:16:59;39.08;;;27.85;;
4210;SDS011;2119;48.828;12.396;2022-11-15T18:21:59;30.33;;;21.63;;
4210;SDS011;2119;48.828;12.396;2022-11-15T18:27:01;19.37;;;15.40;;
4210;SDS011;2119;48.828;12.396;2022-11-15T18:32:02;19.57;;;13.90;;
4210;SDS011;2119;48.828;12.396;2022-11-15T18:37:05;18.50;;;15.13;;
4210;SDS011;2119;48.828;12.396;2022-11-15T18:42:06;17.30;;;14.13;;
4210;SDS011;2119;48.828;12.396;2022-11-15T18:47:06;24.47;;;18.47;;
4210;SDS011;2119;48.828;12.396;2022-11-15T18:52:06;31.87;;;20.70;;
4210;SDS011;2119;48.828;12.396;2022-11-15T18:57:07;40.60;;;26.23;;
4210;SDS011;2119;48.828;12.396;2022-11-15T19:02:09;38.53;;;27.53;;
4210;SDS011;2119;48.828;12.396;2022-11-15T19:07:10;31.00;;;22.00;;
4210;SDS011;2119;48.828;12.396;2022-11-15T19:12:10;28.90;;;20.63;;
4210;SDS011;2119;48.828;12.396;2022-11-15T19:17:11;33.85;;;24.23;;
4210;SDS011;2119;48.828;12.396;2022-11-15T19:22:11;33.53;;;21.60;;
4210;SDS011;2119;48.828;12.396;2022-11-15T19:27:11;39.58;;;20.58;;
4210;SDS011;2119;48.828;12.396;2022-11-15T19:32:12;32.47;;;20.33;;
4210;SDS011;2119;48.828;12.396;2022-11-15T19:37:12;35.85;;;23.55;;
4210;SDS011;2119;48.828;12.396;2022-11-15T19:42:12;56.38;;;32.50;;
4210;SDS011;2119;48.828;12.396;2022-11-15T19:47:13;48.00;;;29.30;;
4210;SDS011;2119;48.828;12.396;2022-11-15T19:52:13;44.20;;;23.90;;
4210;SDS011;2119;48.828;12.396;2022-11-15T19:57:13;34.67;;;20.88;;
4210;SDS011;2119;48.828;12.396;2022-11-15T20:02:13;34.22;;;21.33;;
4210;SDS011;2119;48.828;12.396;2022-11-15T20:07:20;32.83;;;22.05;;
4210;SDS011;2119;48.828;12.396;2022-11-15T20:12:20;31.27;;;20.37;;
4210;SDS011;2119;48.828;12.396;2022-11-15T20:17:21;24.40;;;16.63;;
4210;SDS011;2119;48.828;12.396;2022-11-15T20:22:23;22.93;;;15.97;;
4210;SDS011;2119;48.828;12.396;2022-11-15T20:27:24;28.60;;;18.80;;
4210;SDS011;2119;48.828;12.396;2022-11-15T20:32:25;42.90;;;24.60;;
4210;SDS011;2119;48.828;12.396;2022-11-15T20:37:25;29.33;;;19.95;;
4210;SDS011;2119;48.828;12.396;2022-11-15T20:42:25;22.85;;;16.52;;
4210;SDS011;2119;48.828;12.396;2022-11-15T20:47:25;25.85;;;17.40;;
4210;SDS011;2119;48.828;12.396;2022-11-15T20:52:28;26.30;;;17.73;;
4210;SDS011;2119;48.828;12.396;2022-11-15T20:57:28;29.17;;;19.17;;
4210;SDS011;2119;48.828;12.396;2022-11-15T21:02:29;26.27;;;18.23;;
4210;SDS011;2119;48.828;12.396;2022-11-15T21:07:29;32.33;;;19.80;;
4210;SDS011;2119;48.828;12.396;2022-11-15T21:12:30;32.25;;;21.20;;
4210;SDS011;2119;48.828;12.396;2022-11-15T21:17:33;38.47;;;23.20;;
4210;SDS011;2119;48.828;12.396;2022-11-15T21:22:35;39.77;;;23.43;;
4210;SDS011;2119;48.828;12.396;2022-11-15T21:27:35;38.03;;;21.13;;
4210;SDS011;2119;48.828;12.396;2022-11-15T21:32:36;37.45;;;22.17;;
4210;SDS011;2119;48.828;12.396;2022-11-15T21:37:38;42.13;;;23.30;;
4210;SDS011;2119;48.828;12.396;2022-11-15T21:42:38;38.08;;;21.13;;
4210;SDS011;2119;48.828;12.396;2022-11-15T21:47:38;42.17;;;21.75;;
4210;SDS011;2119;48.828;12.396;2022-11-15T21:52:39;32.75;;;19.17;;
4210;SDS011;2119;48.828;12.396;2022-11-15T21:57:39;39.80;;;20.60;;
4210;SDS011;2119;48.828;12.396;2022-11-15T22:02:39;38.83;;;21.80;;
4210;SDS011;2119;48.828;12.396;2022-11-15T22:07:39;37.17;;;21.13;;
4210;SDS011;2119;48.828;12.396;2022-11-15T22:12:40;38.75;;;21.75;;
4210;SDS011;2119;48.828;12.396;2022-11-15T22:17:40;33.78;;;19.23;;
4210;SDS011;2119;48.828;12.396;2022-11-15T22:22:59;33.67;;;18.90;;
4210;SDS011;2119;48.828;12.396;2022-11-15T22:27:59;44.70;;;17.77;;
4210;SDS011;2119;48.828;12.396;2022-11-15T22:32:59;46.67;;;18.08;;
4210;SDS011;2119;48.828;12.396;2022-11-15T22:38:00;43.95;;;19.20;;
4210;SDS011;2119;48.828;12.396;2022-11-15T22:43:00;36.97;;;16.85;;
4210;SDS011;2119;48.828;12.396;2022-11-15T22:48:00;35.87;;;18.17;;
4210;SDS011;2119;48.828;12.396;2022-11-15T22:53:00;36.00;;;16.52;;
4210;SDS011;2119;48.828;12.396;2022-11-15T22:58:01;30.37;;;16.27;;
4210;SDS011;2119;48.828;12.396;2022-11-15T23:03:01;30.20;;;15.70;;
4210;SDS011;2119;48.828;12.396;2022-11-15T23:08:02;35.70;;;17.77;;
4210;SDS011;2119;48.828;12.396;2022-11-15T23:13:05;33.15;;;16.83;;
4210;SDS011;2119;48.828;12.396;2022-11-15T23:18:15;28.37;;;16.60;;
4210;SDS011;2119;48.828;12.396;2022-11-15T23:23:16;30.80;;;16.80;;
4210;SDS011;2119;48.828;12.396;2022-11-15T23:28:16;36.93;;;16.70;;
4210;SDS011;2119;48.828;12.396;2022-11-15T23:33:16;34.60;;;16.90;;
4210;SDS011;2119;48.828;12.396;2022-11-15T23:38:35;30.00;;;14.80;;
4210;SDS011;2119;48.828;12.396;2022-11-15T23:43:37;31.10;;;17.20;;
4210;SDS011;2119;48.828;12.396;2022-11-15T23:48:38;24.95;;;15.45;;
4210;SDS011;2119;48.828;12.396;2022-11-15T23:53:39;29.70;;;15.63;;
4210;SDS011;2119;48.828;12.396;2022-11-15T23:58:40;26.67;;;16.38;;
